sensor_id;sensor_type;location;lat;lon;timestamp;temperature;humidity
43043;DHT22;28667;50.758;6.096;2024-01-15T00:00:14;-0.40;99.90
43043;DHT22;28667;50.758;6.096;2024-01-15T00:02:40;-0.40;99.90
43043;DHT22;28667;50.758;6.096;2024-01-15T00:05:05;-0.40;99.90
43043;DHT22;28667;50.758;6.096;2024-01-15T00:07:31;-0.40;99.90
43043;DHT22;28667;50.758;6.096;2024-01-15T00:09:57;-0.40;99.90
43043;DHT22;28667;50.758;6.096;2024-01-15T00:12:23;-0.50;99.90
43043;DHT22;28667;50.758;6.096;2024-01-15T00:14:48;-0.50;99.90
43043;DHT22;28667;50.758;6.096;2024-01-15T00:17:14;-0.50;99.90
43043;DHT22;28667;50.758;6.096;2024-01-15T00:19:40;-0.50;99.90
43043;DHT22;28667;50.758;6.096;2024-01-15T00:22:05;-0.50;99.90
43043;DHT22;28667;50.758;6.096;2024-01-15T00:24:31;-0.50;99.90
43043;DHT22;28667;50.758;6.096;2024-01-15T00:26:57;-0.50;99.90
43043;DHT22;28667;50.758;6.096;2024-01-15T00:29:22;-0.50;99.90
43043;DHT22;28667;50.758;6.096;2024-01-15T00:31:48;-0.50;99.90
43043;DHT22;28667;50.758;6.096;2024-01-15T00:34:14;-0.50;99.90
43043;DHT22;28667;50.758;6.096;2024-01-15T00:36:39;-0.50;99.90
43043;DHT22;28667;50.758;6.096;2024-01-15T00:39:05;-0.40;99.90
43043;DHT22;28667;50.758;6.096;2024-01-15T00:41:31;-0.40;99.90
43043;DHT22;28667;50.758;6.096;2024-01-15T00:43:57;-0.40;99.90
43043;DHT22;28667;50.758;6.096;2024-01-15T00:46:22;-0.40;99.90
43043;DHT22;28667;50.758;6.096;2024-01-15T00:48:48;-0.40;99.90
43043;DHT22;28667;50.758;6.096;2024-01-15T00:51:14;-0.40;99.90
43043;DHT22;28667;50.758;6.096;2024-01-15T00:53:40;-0.40;99.90
43043;DHT22;28667;50.758;6.096;2024-01-15T00:56:06;-0.40;99.90
43043;DHT22;28667;50.758;6.096;2024-01-15T00:58:31;-0.30;99.90
43043;DHT22;28667;50.758;6.096;2024-01-15T01:00:57;-0.30;99.90
43043;DHT22;28667;50.758;6.096;2024-01-15T01:03:23;-0.20;99.90
43043;DHT22;28667;50.758;6.096;2024-01-15T01:05:49;-0.20;99.90
43043;DHT22;28667;50.758;6.096;2024-01-15T01:08:15;-0.20;99.90
43043;DHT22;28667;50.758;6.096;2024-01-15T01:10:41;-0.20;99.90
43043;DHT22;28667;50.758;6.096;2024-01-15T01:13:08;-0.20;99.90
43043;DHT22;28667;50.758;6.096;2024-01-15T01:15:34;-0.20;99.90
43043;DHT22;28667;50.758;6.096;2024-01-15T01:18:00;-0.10;99.90
43043;DHT22;28667;50.758;6.096;2024-01-15T01:20:26;-0.10;99.90
43043;DHT22;28667;50.758;6.096;2024-01-15T01:22:51;-0.10;99.90
43043;DHT22;28667;50.758;6.096;2024-01-15T01:25:17;-0.10;99.90
43043;DHT22;28667;50.758;6.096;2024-01-15T01:27:43;-0.10;99.90
43043;DHT22;28667;50.758;6.096;2024-01-15T01:30:09;-0.10;99.90
43043;DHT22;28667;50.758;6.096;2024-01-15T01:32:34;-0.10;99.90
43043;DHT22;28667;50.758;6.096;2024-01-15T01:35:01;-0.10;99.90
43043;DHT22;28667;50.758;6.096;2024-01-15T01:37:27;-0.10;99.90
43043;DHT22;28667;50.758;6.096;2024-01-15T01:39:52;-0.20;99.90
43043;DHT22;28667;50.758;6.096;2024-01-15T01:42:18;-0.10;99.90
43043;DHT22;28667;50.758;6.096;2024-01-15T01:44:44;-0.20;99.90
43043;DHT22;28667;50.758;6.096;2024-01-15T01:47:09;-0.20;99.90
43043;DHT22;28667;50.758;6.096;2024-01-15T01:49:37;-0.20;99.90
43043;DHT22;28667;50.758;6.096;2024-01-15T01:52:04;-0.20;99.90
43043;DHT22;28667;50.758;6.096;2024-01-15T01:54:32;-0.20;99.90
43043;DHT22;28667;50.758;6.096;2024-01-15T01:56:58;-0.20;99.90
43043;DHT22;28667;50.758;6.096;2024-01-15T01:59:27;-0.20;99.90
43043;DHT22;28667;50.758;6.096;2024-01-15T02:01:54;-0.20;99.90
43043;DHT22;28667;50.758;6.096;2024-01-15T02:04:24;-0.20;99.90
43043;DHT22;28667;50.758;6.096;2024-01-15T02:06:51;-0.20;99.90
43043;DHT22;28667;50.758;6.096;2024-01-15T02:09:18;-0.20;99.90
43043;DHT22;28667;50.758;6.096;2024-01-15T02:11:46;-0.20;99.90
43043;DHT22;28667;50.758;6.096;2024-01-15T02:14:12;-0.20;99.90
43043;DHT22;28667;50.758;6.096;2024-01-15T02:16:37;-0.20;99.90
43043;DHT22;28667;50.758;6.096;2024-01-15T02:19:03;-0.20;99.90
43043;DHT22;28667;50.758;6.096;2024-01-15T02:21:29;-0.20;99.90
43043;DHT22;28667;50.758;6.096;2024-01-15T02:23:55;-0.10;99.90
43043;DHT22;28667;50.758;6.096;2024-01-15T02:26:22;-0.10;99.90
43043;DHT22;28667;50.758;6.096;2024-01-15T02:28:48;-0.10;99.90
43043;DHT22;28667;50.758;6.096;2024-01-15T02:33:42;-0.10;99.90
43043;DHT22;28667;50.758;6.096;2024-01-15T02:36:10;-0.10;99.90
43043;DHT22;28667;50.758;6.096;2024-01-15T02:38:36;-0.10;99.90
43043;DHT22;28667;50.758;6.096;2024-01-15T02:41:01;-0.10;99.90
43043;DHT22;28667;50.758;6.096;2024-01-15T02:43:27;-0.10;99.90
43043;DHT22;28667;50.758;6.096;2024-01-15T02:45:53;-0.10;99.90
43043;DHT22;28667;50.758;6.096;2024-01-15T02:48:18;-0.10;99.90
43043;DHT22;28667;50.758;6.096;2024-01-15T02:50:44;-0.10;99.90
43043;DHT22;28667;50.758;6.096;2024-01-15T02:53:10;-0.10;99.90
43043;DHT22;28667;50.758;6.096;2024-01-15T02:55:35;0.00;99.90
43043;DHT22;28667;50.758;6.096;2024-01-15T02:58:01;0.00;99.90
43043;DHT22;28667;50.758;6.096;2024-01-15T03:00:27;0.00;99.90
43043;DHT22;28667;50.758;6.096;2024-01-15T03:02:52;0.00;99.90
43043;DHT22;28667;50.758;6.096;2024-01-15T03:05:18;0.00;99.90
43043;DHT22;28667;50.758;6.096;2024-01-15T03:07:44;0.00;99.90
43043;DHT22;28667;50.758;6.096;2024-01-15T03:10:10;0.00;99.90
43043;DHT22;28667;50.758;6.096;2024-01-15T03:12:35;0.00;99.90
43043;DHT22;28667;50.758;6.096;2024-01-15T03:15:01;0.00;99.90
43043;DHT22;28667;50.758;6.096;2024-01-15T03:17:27;0.00;99.90
43043;DHT22;28667;50.758;6.096;2024-01-15T03:19:53;0.00;99.90
43043;DHT22;28667;50.758;6.096;2024-01-15T03:22:18;0.00;99.90
43043;DHT22;28667;50.758;6.096;2024-01-15T03:24:44;0.00;99.90
43043;DHT22;28667;50.758;6.096;2024-01-15T03:27:10;0.00;99.90
43043;DHT22;28667;50.758;6.096;2024-01-15T03:29:36;0.00;99.90
43043;DHT22;28667;50.758;6.096;2024-01-15T03:32:02;0.00;99.90
43043;DHT22;28667;50.758;6.096;2024-01-15T03:34:28;0.10;99.90
43043;DHT22;28667;50.758;6.096;2024-01-15T03:36:54;0.00;99.90
43043;DHT22;28667;50.758;6.096;2024-01-15T03:39:19;0.00;99.90
43043;DHT22;28667;50.758;6.096;2024-01-15T03:41:45;0.00;99.90
43043;DHT22;28667;50.758;6.096;2024-01-15T03:44:11;0.10;99.90
43043;DHT22;28667;50.758;6.096;2024-01-15T03:46:36;0.10;99.90
43043;DHT22;28667;50.758;6.096;2024-01-15T03:49:02;0.10;99.90
43043;DHT22;28667;50.758;6.096;2024-01-15T03:51:28;0.20;99.90
43043;DHT22;28667;50.758;6.096;2024-01-15T03:53:53;0.20;99.90
43043;DHT22;28667;50.758;6.096;2024-01-15T03:56:19;0.20;99.90
43043;DHT22;28667;50.758;6.096;2024-01-15T03:58:45;0.20;99.90
43043;DHT22;28667;50.758;6.096;2024-01-15T04:01:11;0.20;99.90
43043;DHT22;28667;50.758;6.096;2024-01-15T04:03:37;0.20;99.90
43043;DHT22;28667;50.758;6.096;2024-01-15T04:06:03;0.20;99.90
43043;DHT22;28667;50.758;6.096;2024-01-15T04:08:29;0.20;99.90
43043;DHT22;28667;50.758;6.096;2024-01-15T04:10:55;0.20;99.90
43043;DHT22;28667;50.758;6.096;2024-01-15T04:13:21;0.30;99.90
43043;DHT22;28667;50.758;6.096;2024-01-15T04:15:47;0.20;99.90
43043;DHT22;28667;50.758;6.096;2024-01-15T04:18:13;0.20;99.90
43043;DHT22;28667;50.758;6.096;2024-01-15T04:20:38;0.20;99.90
43043;DHT22;28667;50.758;6.096;2024-01-15T04:23:05;0.20;99.90
43043;DHT22;28667;50.758;6.096;2024-01-15T04:25:31;0.30;99.90
43043;DHT22;28667;50.758;6.096;2024-01-15T04:27:56;0.20;99.90
43043;DHT22;28667;50.758;6.096;2024-01-15T04:30:22;0.20;99.90
43043;DHT22;28667;50.758;6.096;2024-01-15T04:32:48;0.20;99.90
43043;DHT22;28667;50.758;6.096;2024-01-15T04:35:13;0.20;99.90
43043;DHT22;28667;50.758;6.096;2024-01-15T04:37:40;0.20;99.90
43043;DHT22;28667;50.758;6.096;2024-01-15T04:40:06;0.20;99.90
43043;DHT22;28667;50.758;6.096;2024-01-15T04:42:32;0.20;99.90
43043;DHT22;28667;50.758;6.096;2024-01-15T04:44:58;0.20;99.90
43043;DHT22;28667;50.758;6.096;2024-01-15T04:47:24;0.20;99.90
43043;DHT22;28667;50.758;6.096;2024-01-15T04:49:50;0.20;99.90
43043;DHT22;28667;50.758;6.096;2024-01-15T04:52:16;0.20;99.90
43043;DHT22;28667;50.758;6.096;2024-01-15T04:54:42;0.20;99.90
43043;DHT22;28667;50.758;6.096;2024-01-15T04:57:08;0.20;99.90
43043;DHT22;28667;50.758;6.096;2024-01-15T04:59:33;0.30;99.90
43043;DHT22;28667;50.758;6.096;2024-01-15T05:01:59;0.30;99.90
43043;DHT22;28667;50.758;6.096;2024-01-15T05:04:25;0.30;99.90
43043;DHT22;28667;50.758;6.096;2024-01-15T05:06:51;0.30;99.90
43043;DHT22;28667;50.758;6.096;2024-01-15T05:09:17;0.30;99.90
43043;DHT22;28667;50.758;6.096;2024-01-15T05:11:43;0.30;99.90
43043;DHT22;28667;50.758;6.096;2024-01-15T05:14:09;0.40;99.90
43043;DHT22;28667;50.758;6.096;2024-01-15T05:16:38;0.30;99.90
43043;DHT22;28667;50.758;6.096;2024-01-15T05:19:04;0.40;99.90
43043;DHT22;28667;50.758;6.096;2024-01-15T05:21:29;0.30;99.90
43043;DHT22;28667;50.758;6.096;2024-01-15T05:23:55;0.30;99.90
43043;DHT22;28667;50.758;6.096;2024-01-15T05:26:21;0.30;99.90
43043;DHT22;28667;50.758;6.096;2024-01-15T05:28:46;0.30;99.90
43043;DHT22;28667;50.758;6.096;2024-01-15T05:31:12;0.40;99.90
43043;DHT22;28667;50.758;6.096;2024-01-15T05:33:38;0.40;99.90
43043;DHT22;28667;50.758;6.096;2024-01-15T05:36:04;0.40;99.90
43043;DHT22;28667;50.758;6.096;2024-01-15T05:38:29;0.40;99.90
43043;DHT22;28667;50.758;6.096;2024-01-15T05:40:55;0.40;99.90
43043;DHT22;28667;50.758;6.096;2024-01-15T05:43:21;0.40;99.90
43043;DHT22;28667;50.758;6.096;2024-01-15T05:45:47;0.40;99.90
43043;DHT22;28667;50.758;6.096;2024-01-15T05:48:13;0.50;99.90
43043;DHT22;28667;50.758;6.096;2024-01-15T05:50:39;0.50;99.90
43043;DHT22;28667;50.758;6.096;2024-01-15T05:53:05;0.50;99.90
43043;DHT22;28667;50.758;6.096;2024-01-15T05:55:30;0.50;99.90
43043;DHT22;28667;50.758;6.096;2024-01-15T05:57:56;0.50;99.90
43043;DHT22;28667;50.758;6.096;2024-01-15T06:00:22;0.50;99.90
43043;DHT22;28667;50.758;6.096;2024-01-15T06:02:48;0.50;99.90
43043;DHT22;28667;50.758;6.096;2024-01-15T06:05:13;0.50;99.90
43043;DHT22;28667;50.758;6.096;2024-01-15T06:07:39;0.50;99.90
43043;DHT22;28667;50.758;6.096;2024-01-15T06:10:05;0.40;99.90
43043;DHT22;28667;50.758;6.096;2024-01-15T06:12:31;0.40;99.90
43043;DHT22;28667;50.758;6.096;2024-01-15T06:14:59;0.40;99.90
43043;DHT22;28667;50.758;6.096;2024-01-15T06:17:25;0.40;99.90
43043;DHT22;28667;50.758;6.096;2024-01-15T06:19:50;0.40;99.90
43043;DHT22;28667;50.758;6.096;2024-01-15T06:22:16;0.40;99.90
43043;DHT22;28667;50.758;6.096;2024-01-15T06:24:42;0.40;99.90
43043;DHT22;28667;50.758;6.096;2024-01-15T06:27:08;0.40;99.90
43043;DHT22;28667;50.758;6.096;2024-01-15T06:29:36;0.50;99.90
43043;DHT22;28667;50.758;6.096;2024-01-15T06:32:02;0.40;99.90
43043;DHT22;28667;50.758;6.096;2024-01-15T06:34:28;0.40;99.90
43043;DHT22;28667;50.758;6.096;2024-01-15T06:36:54;0.50;99.90
43043;DHT22;28667;50.758;6.096;2024-01-15T06:39:20;0.50;99.90
43043;DHT22;28667;50.758;6.096;2024-01-15T06:41:45;0.50;99.90
43043;DHT22;28667;50.758;6.096;2024-01-15T06:44:11;0.50;99.90
43043;DHT22;28667;50.758;6.096;2024-01-15T06:46:42;0.60;99.90
43043;DHT22;28667;50.758;6.096;2024-01-15T06:49:08;0.50;99.90
43043;DHT22;28667;50.758;6.096;2024-01-15T06:51:34;0.50;99.90
43043;DHT22;28667;50.758;6.096;2024-01-15T06:54:00;0.50;99.90
43043;DHT22;28667;50.758;6.096;2024-01-15T06:56:25;0.40;99.90
43043;DHT22;28667;50.758;6.096;2024-01-15T06:58:51;0.50;99.90
43043;DHT22;28667;50.758;6.096;2024-01-15T07:01:17;0.50;99.90
43043;DHT22;28667;50.758;6.096;2024-01-15T07:03:42;0.50;99.90
43043;DHT22;28667;50.758;6.096;2024-01-15T07:06:08;0.50;99.90
43043;DHT22;28667;50.758;6.096;2024-01-15T07:08:34;0.40;99.90
43043;DHT22;28667;50.758;6.096;2024-01-15T07:11:03;0.50;99.90
43043;DHT22;28667;50.758;6.096;2024-01-15T07:13:29;0.50;99.90
43043;DHT22;28667;50.758;6.096;2024-01-15T07:15:55;0.50;99.90
43043;DHT22;28667;50.758;6.096;2024-01-15T07:18:20;0.50;99.90
43043;DHT22;28667;50.758;6.096;2024-01-15T07:20:46;0.40;99.90
43043;DHT22;28667;50.758;6.096;2024-01-15T07:23:12;0.40;99.90
43043;DHT22;28667;50.758;6.096;2024-01-15T07:25:37;0.50;99.90
43043;DHT22;28667;50.758;6.096;2024-01-15T07:28:03;0.50;99.90
43043;DHT22;28667;50.758;6.096;2024-01-15T07:30:29;0.50;99.90
43043;DHT22;28667;50.758;6.096;2024-01-15T07:32:55;0.40;99.90
43043;DHT22;28667;50.758;6.096;2024-01-15T07:35:21;0.50;99.90
43043;DHT22;28667;50.758;6.096;2024-01-15T07:37:46;0.40;99.90
43043;DHT22;28667;50.758;6.096;2024-01-15T07:40:12;0.40;99.90
43043;DHT22;28667;50.758;6.096;2024-01-15T07:42:38;0.40;99.90
43043;DHT22;28667;50.758;6.096;2024-01-15T07:45:04;0.40;99.90
43043;DHT22;28667;50.758;6.096;2024-01-15T07:47:30;0.40;99.90
43043;DHT22;28667;50.758;6.096;2024-01-15T07:49:56;0.40;99.90
43043;DHT22;28667;50.758;6.096;2024-01-15T07:52:21;0.50;99.90
43043;DHT22;28667;50.758;6.096;2024-01-15T07:54:47;0.40;99.90
43043;DHT22;28667;50.758;6.096;2024-01-15T07:57:13;0.40;99.90
43043;DHT22;28667;50.758;6.096;2024-01-15T07:59:39;0.40;99.90
43043;DHT22;28667;50.758;6.096;2024-01-15T08:02:06;0.40;99.90
43043;DHT22;28667;50.758;6.096;2024-01-15T08:04:32;0.40;99.90
43043;DHT22;28667;50.758;6.096;2024-01-15T08:06:57;0.40;99.90
43043;DHT22;28667;50.758;6.096;2024-01-15T08:09:23;0.40;99.90
43043;DHT22;28667;50.758;6.096;2024-01-15T08:11:49;0.50;99.90
43043;DHT22;28667;50.758;6.096;2024-01-15T08:14:15;0.50;99.90
43043;DHT22;28667;50.758;6.096;2024-01-15T08:16:41;0.40;99.90
43043;DHT22;28667;50.758;6.096;2024-01-15T08:19:07;0.50;99.90
43043;DHT22;28667;50.758;6.096;2024-01-15T08:21:32;0.50;99.90
43043;DHT22;28667;50.758;6.096;2024-01-15T08:24:00;0.50;99.90
43043;DHT22;28667;50.758;6.096;2024-01-15T08:26:26;0.50;99.90
43043;DHT22;28667;50.758;6.096;2024-01-15T08:28:52;0.50;99.90
43043;DHT22;28667;50.758;6.096;2024-01-15T08:31:17;0.50;99.90
43043;DHT22;28667;50.758;6.096;2024-01-15T08:33:43;0.50;99.90
43043;DHT22;28667;50.758;6.096;2024-01-15T08:36:09;0.50;99.90
43043;DHT22;28667;50.758;6.096;2024-01-15T08:38:35;0.50;99.90
43043;DHT22;28667;50.758;6.096;2024-01-15T08:41:01;0.60;99.90
43043;DHT22;28667;50.758;6.096;2024-01-15T08:43:27;0.50;99.90
43043;DHT22;28667;50.758;6.096;2024-01-15T08:45:53;0.50;99.90
43043;DHT22;28667;50.758;6.096;2024-01-15T08:48:19;0.50;99.90
43043;DHT22;28667;50.758;6.096;2024-01-15T08:50:45;0.60;99.90
43043;DHT22;28667;50.758;6.096;2024-01-15T08:53:14;0.60;99.90
43043;DHT22;28667;50.758;6.096;2024-01-15T08:55:41;0.60;99.90
43043;DHT22;28667;50.758;6.096;2024-01-15T08:58:08;0.70;99.90
43043;DHT22;28667;50.758;6.096;2024-01-15T09:00:34;0.70;99.90
43043;DHT22;28667;50.758;6.096;2024-01-15T09:03:00;0.70;99.90
43043;DHT22;28667;50.758;6.096;2024-01-15T09:05:26;0.70;99.90
43043;DHT22;28667;50.758;6.096;2024-01-15T09:07:51;0.70;99.90
43043;DHT22;28667;50.758;6.096;2024-01-15T09:10:18;0.70;99.90
43043;DHT22;28667;50.758;6.096;2024-01-15T09:12:44;0.70;99.90
43043;DHT22;28667;50.758;6.096;2024-01-15T09:15:10;0.70;99.90
43043;DHT22;28667;50.758;6.096;2024-01-15T09:17:36;0.70;99.90
43043;DHT22;28667;50.758;6.096;2024-01-15T09:20:01;0.70;99.90
43043;DHT22;28667;50.758;6.096;2024-01-15T09:22:29;0.70;99.90
43043;DHT22;28667;50.758;6.096;2024-01-15T09:24:55;0.60;99.90
43043;DHT22;28667;50.758;6.096;2024-01-15T09:27:21;0.60;99.90
43043;DHT22;28667;50.758;6.096;2024-01-15T09:29:47;0.60;99.90
43043;DHT22;28667;50.758;6.096;2024-01-15T09:32:12;0.50;99.90
43043;DHT22;28667;50.758;6.096;2024-01-15T09:34:38;0.50;99.90
43043;DHT22;28667;50.758;6.096;2024-01-15T09:37:05;0.50;99.90
43043;DHT22;28667;50.758;6.096;2024-01-15T09:39:30;0.40;99.90
43043;DHT22;28667;50.758;6.096;2024-01-15T09:41:57;0.40;99.90
43043;DHT22;28667;50.758;6.096;2024-01-15T09:44:23;0.40;99.90
43043;DHT22;28667;50.758;6.096;2024-01-15T09:46:49;0.40;99.90
43043;DHT22;28667;50.758;6.096;2024-01-15T09:49:16;0.30;99.90
43043;DHT22;28667;50.758;6.096;2024-01-15T09:51:43;0.40;99.90
43043;DHT22;28667;50.758;6.096;2024-01-15T09:54:09;0.30;99.90
43043;DHT22;28667;50.758;6.096;2024-01-15T09:56:35;0.30;99.90
43043;DHT22;28667;50.758;6.096;2024-01-15T09:59:03;0.30;99.90
43043;DHT22;28667;50.758;6.096;2024-01-15T10:01:32;0.40;99.90
43043;DHT22;28667;50.758;6.096;2024-01-15T10:03:59;0.40;99.90
43043;DHT22;28667;50.758;6.096;2024-01-15T10:06:27;0.40;99.90
43043;DHT22;28667;50.758;6.096;2024-01-15T10:08:57;0.40;99.90
43043;DHT22;28667;50.758;6.096;2024-01-15T10:11:23;0.40;99.90
43043;DHT22;28667;50.758;6.096;2024-01-15T10:13:49;0.40;99.90
43043;DHT22;28667;50.758;6.096;2024-01-15T10:16:21;0.40;99.90
43043;DHT22;28667;50.758;6.096;2024-01-15T10:18:51;0.40;99.90
43043;DHT22;28667;50.758;6.096;2024-01-15T10:21:17;0.40;99.90
43043;DHT22;28667;50.758;6.096;2024-01-15T10:23:42;0.40;99.90
43043;DHT22;28667;50.758;6.096;2024-01-15T10:26:08;0.40;99.90
43043;DHT22;28667;50.758;6.096;2024-01-15T10:28:34;0.40;99.90
43043;DHT22;28667;50.758;6.096;2024-01-15T10:31:00;0.40;99.90
43043;DHT22;28667;50.758;6.096;2024-01-15T10:33:26;0.40;99.90
43043;DHT22;28667;50.758;6.096;2024-01-15T10:35:58;0.50;99.90
43043;DHT22;28667;50.758;6.096;2024-01-15T10:38:25;0.50;99.90
43043;DHT22;28667;50.758;6.096;2024-01-15T10:40:54;0.50;99.90
43043;DHT22;28667;50.758;6.096;2024-01-15T10:43:21;0.50;99.90
43043;DHT22;28667;50.758;6.096;2024-01-15T10:45:50;0.60;99.90
43043;DHT22;28667;50.758;6.096;2024-01-15T10:48:18;0.60;99.90
43043;DHT22;28667;50.758;6.096;2024-01-15T10:50:46;0.60;99.90
43043;DHT22;28667;50.758;6.096;2024-01-15T10:53:14;0.70;99.90
43043;DHT22;28667;50.758;6.096;2024-01-15T10:55:41;0.70;99.90
43043;DHT22;28667;50.758;6.096;2024-01-15T10:58:09;0.80;99.90
43043;DHT22;28667;50.758;6.096;2024-01-15T11:00:38;0.80;99.90
43043;DHT22;28667;50.758;6.096;2024-01-15T11:03:05;0.80;99.90
43043;DHT22;28667;50.758;6.096;2024-01-15T11:05:41;0.80;99.90
43043;DHT22;28667;50.758;6.096;2024-01-15T11:08:07;0.90;99.90
43043;DHT22;28667;50.758;6.096;2024-01-15T11:10:47;1.00;99.90
43043;DHT22;28667;50.758;6.096;2024-01-15T11:18:31;1.10;99.90
43043;DHT22;28667;50.758;6.096;2024-01-15T11:23:57;1.10;99.90
43043;DHT22;28667;50.758;6.096;2024-01-15T11:26:36;1.10;99.90
43043;DHT22;28667;50.758;6.096;2024-01-15T11:29:04;1.10;99.90
43043;DHT22;28667;50.758;6.096;2024-01-15T11:31:56;1.10;99.90
43043;DHT22;28667;50.758;6.096;2024-01-15T11:34:54;1.10;99.90
43043;DHT22;28667;50.758;6.096;2024-01-15T11:37:23;1.10;99.90
43043;DHT22;28667;50.758;6.096;2024-01-15T11:39:54;1.00;99.90
43043;DHT22;28667;50.758;6.096;2024-01-15T11:42:23;1.10;99.90
43043;DHT22;28667;50.758;6.096;2024-01-15T11:44:49;1.10;99.90
43043;DHT22;28667;50.758;6.096;2024-01-15T11:47:15;1.10;99.90
43043;DHT22;28667;50.758;6.096;2024-01-15T11:52:22;1.10;99.90
43043;DHT22;28667;50.758;6.096;2024-01-15T11:57:54;1.10;99.90
43043;DHT22;28667;50.758;6.096;2024-01-15T12:00:21;1.10;99.90
43043;DHT22;28667;50.758;6.096;2024-01-15T12:02:48;1.20;99.90
43043;DHT22;28667;50.758;6.096;2024-01-15T12:05:15;1.20;99.90
43043;DHT22;28667;50.758;6.096;2024-01-15T12:07:42;1.20;99.90
43043;DHT22;28667;50.758;6.096;2024-01-15T12:10:13;1.30;99.90
43043;DHT22;28667;50.758;6.096;2024-01-15T12:15:21;1.30;99.90
43043;DHT22;28667;50.758;6.096;2024-01-15T12:17:47;1.30;99.90
43043;DHT22;28667;50.758;6.096;2024-01-15T12:20:13;1.30;99.90
43043;DHT22;28667;50.758;6.096;2024-01-15T12:22:39;1.30;99.90
43043;DHT22;28667;50.758;6.096;2024-01-15T12:25:05;1.30;99.90
43043;DHT22;28667;50.758;6.096;2024-01-15T12:27:31;1.30;99.90
43043;DHT22;28667;50.758;6.096;2024-01-15T12:29:58;1.30;99.90
43043;DHT22;28667;50.758;6.096;2024-01-15T12:32:24;1.30;99.90
43043;DHT22;28667;50.758;6.096;2024-01-15T12:34:50;1.20;99.90
43043;DHT22;28667;50.758;6.096;2024-01-15T12:37:20;1.20;99.90
43043;DHT22;28667;50.758;6.096;2024-01-15T12:39:46;1.20;99.90
43043;DHT22;28667;50.758;6.096;2024-01-15T12:42:13;1.10;99.90
43043;DHT22;28667;50.758;6.096;2024-01-15T12:44:39;1.10;99.90
43043;DHT22;28667;50.758;6.096;2024-01-15T12:47:05;1.10;99.90
43043;DHT22;28667;50.758;6.096;2024-01-15T12:49:31;1.10;99.90
43043;DHT22;28667;50.758;6.096;2024-01-15T12:51:57;1.10;99.90
43043;DHT22;28667;50.758;6.096;2024-01-15T12:54:24;1.10;99.90
43043;DHT22;28667;50.758;6.096;2024-01-15T12:56:50;1.00;99.90
43043;DHT22;28667;50.758;6.096;2024-01-15T12:59:17;1.00;99.90
43043;DHT22;28667;50.758;6.096;2024-01-15T13:01:43;1.00;99.90
43043;DHT22;28667;50.758;6.096;2024-01-15T13:04:09;0.90;99.90
43043;DHT22;28667;50.758;6.096;2024-01-15T13:06:35;0.90;99.90
43043;DHT22;28667;50.758;6.096;2024-01-15T13:09:05;0.80;99.90
43043;DHT22;28667;50.758;6.096;2024-01-15T13:11:34;0.70;99.90
43043;DHT22;28667;50.758;6.096;2024-01-15T13:14:00;0.60;99.90
43043;DHT22;28667;50.758;6.096;2024-01-15T13:16:25;0.60;99.90
43043;DHT22;28667;50.758;6.096;2024-01-15T13:18:55;0.60;99.90
43043;DHT22;28667;50.758;6.096;2024-01-15T13:21:22;0.50;99.90
43043;DHT22;28667;50.758;6.096;2024-01-15T13:23:48;0.50;99.90
43043;DHT22;28667;50.758;6.096;2024-01-15T13:26:14;0.50;99.90
43043;DHT22;28667;50.758;6.096;2024-01-15T13:28:39;0.50;99.90
43043;DHT22;28667;50.758;6.096;2024-01-15T13:31:05;0.50;99.90
43043;DHT22;28667;50.758;6.096;2024-01-15T13:33:31;0.50;99.90
43043;DHT22;28667;50.758;6.096;2024-01-15T13:35:56;0.50;99.90
43043;DHT22;28667;50.758;6.096;2024-01-15T13:38:22;0.60;99.90
43043;DHT22;28667;50.758;6.096;2024-01-15T13:40:49;0.60;99.90
43043;DHT22;28667;50.758;6.096;2024-01-15T13:43:15;0.60;99.90
43043;DHT22;28667;50.758;6.096;2024-01-15T13:45:41;0.60;99.90
43043;DHT22;28667;50.758;6.096;2024-01-15T13:48:07;0.70;99.90
43043;DHT22;28667;50.758;6.096;2024-01-15T13:50:36;0.70;99.90
43043;DHT22;28667;50.758;6.096;2024-01-15T13:53:03;0.70;99.90
43043;DHT22;28667;50.758;6.096;2024-01-15T13:55:32;0.70;99.90
43043;DHT22;28667;50.758;6.096;2024-01-15T13:57:57;0.70;99.90
43043;DHT22;28667;50.758;6.096;2024-01-15T14:00:23;0.70;99.90
43043;DHT22;28667;50.758;6.096;2024-01-15T14:02:49;0.70;99.90
43043;DHT22;28667;50.758;6.096;2024-01-15T14:05:15;0.60;99.90
43043;DHT22;28667;50.758;6.096;2024-01-15T14:07:41;0.60;99.90
43043;DHT22;28667;50.758;6.096;2024-01-15T14:10:09;0.60;99.90
43043;DHT22;28667;50.758;6.096;2024-01-15T14:12:35;0.50;99.90
43043;DHT22;28667;50.758;6.096;2024-01-15T14:15:02;0.60;99.90
43043;DHT22;28667;50.758;6.096;2024-01-15T14:17:29;0.60;99.90
43043;DHT22;28667;50.758;6.096;2024-01-15T14:19:54;0.50;99.90
43043;DHT22;28667;50.758;6.096;2024-01-15T14:22:20;0.60;99.90
43043;DHT22;28667;50.758;6.096;2024-01-15T14:24:46;0.50;99.90
43043;DHT22;28667;50.758;6.096;2024-01-15T14:27:12;0.60;99.90
43043;DHT22;28667;50.758;6.096;2024-01-15T14:29:37;0.60;99.90
43043;DHT22;28667;50.758;6.096;2024-01-15T14:32:03;0.60;99.90
43043;DHT22;28667;50.758;6.096;2024-01-15T14:34:29;0.60;99.90
43043;DHT22;28667;50.758;6.096;2024-01-15T14:36:55;0.60;99.90
43043;DHT22;28667;50.758;6.096;2024-01-15T14:39:24;0.60;99.90
43043;DHT22;28667;50.758;6.096;2024-01-15T14:41:51;0.50;99.90
43043;DHT22;28667;50.758;6.096;2024-01-15T14:44:17;0.50;99.90
43043;DHT22;28667;50.758;6.096;2024-01-15T14:46:43;0.50;99.90
43043;DHT22;28667;50.758;6.096;2024-01-15T14:49:08;0.50;99.90
43043;DHT22;28667;50.758;6.096;2024-01-15T14:51:34;0.50;99.90
43043;DHT22;28667;50.758;6.096;2024-01-15T14:54:00;0.50;99.90
43043;DHT22;28667;50.758;6.096;2024-01-15T14:56:25;0.50;99.90
43043;DHT22;28667;50.758;6.096;2024-01-15T14:58:51;0.50;99.90
43043;DHT22;28667;50.758;6.096;2024-01-15T15:01:17;0.50;99.90
43043;DHT22;28667;50.758;6.096;2024-01-15T15:03:43;0.50;99.90
43043;DHT22;28667;50.758;6.096;2024-01-15T15:06:09;0.50;99.90
43043;DHT22;28667;50.758;6.096;2024-01-15T15:08:36;0.50;99.90
43043;DHT22;28667;50.758;6.096;2024-01-15T15:11:03;0.50;99.90
43043;DHT22;28667;50.758;6.096;2024-01-15T15:13:29;0.50;99.90
43043;DHT22;28667;50.758;6.096;2024-01-15T15:15:54;0.50;99.90
43043;DHT22;28667;50.758;6.096;2024-01-15T15:18:21;0.50;99.90
43043;DHT22;28667;50.758;6.096;2024-01-15T15:20:51;0.50;99.90
43043;DHT22;28667;50.758;6.096;2024-01-15T15:23:18;0.50;99.90
43043;DHT22;28667;50.758;6.096;2024-01-15T15:25:44;0.50;99.90
43043;DHT22;28667;50.758;6.096;2024-01-15T15:28:09;0.50;99.90
43043;DHT22;28667;50.758;6.096;2024-01-15T15:30:37;0.50;99.90
43043;DHT22;28667;50.758;6.096;2024-01-15T15:33:05;0.50;99.90
43043;DHT22;28667;50.758;6.096;2024-01-15T15:35:31;0.50;99.90
43043;DHT22;28667;50.758;6.096;2024-01-15T15:37:57;0.50;99.90
43043;DHT22;28667;50.758;6.096;2024-01-15T15:40:23;0.40;99.90
43043;DHT22;28667;50.758;6.096;2024-01-15T15:42:50;0.40;99.90
43043;DHT22;28667;50.758;6.096;2024-01-15T15:45:16;0.40;99.90
43043;DHT22;28667;50.758;6.096;2024-01-15T15:47:42;0.30;99.90
43043;DHT22;28667;50.758;6.096;2024-01-15T15:50:08;0.40;99.90
43043;DHT22;28667;50.758;6.096;2024-01-15T15:52:34;0.40;99.90
43043;DHT22;28667;50.758;6.096;2024-01-15T15:55:00;0.40;99.90